Time;durP1;ratioP1;P1;durP2;ratioP2;P2;SDS_P1;SDS_P2;PMS_P1;PMS_P2;Temp;Humidity;BMP_temperature;BMP_pressure;BME280_temperature;BME280_humidity;BME280_pressure;Samples;Min_cycle;Max_cycle;Signal;HPM_P1;HPM_P2
2021/12/23 00:01:17;;;;;;;;;;;;;;;;;;5034497;28;1898;-84
2021/12/23 00:03:42;;;;;;;;;;;;;;;;;;5034543;28;1765;-84
2021/12/23 00:06:07;;;;;;;;;;;;;;;;;;5034935;28;1272;-84
2021/12/23 00:08:33;;;;;;;;;;;;;;;;;;5034971;28;1943;-84
2021/12/23 00:10:58;;;;;;;;;;;;;;;;;;5036921;28;1824;-84
2021/12/23 00:13:24;;;;;;;;;;;;;;;;;;5034852;28;1280;-84
2021/12/23 00:23:44;;;;;;;;;;;;;;;;;;5036768;28;1323;-85
2021/12/23 00:26:09;;;;;;;;;;;;;;;;;;5036719;28;1920;-84
2021/12/23 00:28:34;;;;;;;;;;;;;;;;;;5036545;28;1170;-85
2021/12/23 00:30:59;;;;;;;;;;;;;;;;;;5035897;28;1248;-85
2021/12/23 00:33:24;;;;;;;;;;;;;;;;;;5035374;28;1370;-84
2021/12/23 00:35:49;;;;;;;;;;;;;;;;;;5037780;28;1720;-85
2021/12/23 00:38:21;;;;;;;;;;;;;;;;;;5036759;28;1220;-85
2021/12/23 00:40:46;;;;;;;;;;;;;;;;;;5037410;28;1949;-84
2021/12/23 00:43:11;;;;;;;;;;;;;;;;;;5036051;28;1224;-84
2021/12/23 00:45:36;;;;;;;;;;;;;;;;;;5036260;28;1423;-84
2021/12/23 00:48:01;;;;;;;;;;;;;;;;;;5035969;28;1290;-84
2021/12/23 00:50:26;;;;;;;;;;;;;;;;;;5036264;28;1283;-84
2021/12/23 00:52:56;;;;;;;;;;;;;;;;;;5036929;28;1283;-84
2021/12/23 00:55:21;;;;;;;;;;;;;;;;;;5037034;28;836;-84
2021/12/23 00:57:46;;;;;;;;;;;;;;;;;;5038542;28;1617;-87
2021/12/23 01:00:11;;;;;;;;;;;;;;;;;;5039026;28;1208;-85
2021/12/23 01:02:37;;;;;;;;;;;;;;;;;;5039939;28;1902;-86
2021/12/23 01:05:02;;;;;;;;;;;;;;;;;;5036574;28;1227;-85
2021/12/23 01:07:27;;;;;;;;;;;;;;;;;;5035777;28;1694;-85
2021/12/23 01:09:53;;;;;;;;;;;;;;;;;;5037098;28;1215;-84
2021/12/23 01:12:22;;;;;;;;;;;;;;;;;;5035451;28;1729;-84
2021/12/23 01:19:50;;;;;;;;;;;;;;;;;;5016501;28;897;-84
2021/12/23 01:22:15;;;;;;;;;;;;;;;;;;5015865;28;1894;-85
2021/12/23 01:24:40;;;;;;;;;;;;;;;;;;5032115;28;1483;-84
2021/12/23 01:27:05;;;;;;;;;;;;;;;;;;5035370;28;1319;-84
2021/12/23 01:29:30;;;;;;;;;;;;;;;;;;5035243;28;1473;-84
2021/12/23 01:31:55;;;;;;;;;;;;;;;;;;5034139;28;1161;-84
2021/12/23 01:34:20;;;;;;;;;;;;;;;;;;5034923;28;1276;-85
2021/12/23 01:36:45;;;;;;;;;;;;;;;;;;5036050;28;793;-85
2021/12/23 01:39:13;;;;;;;;;;;;;;;;;;5033336;28;1385;-84
2021/12/23 01:41:38;;;;;;;;;;;;;;;;;;5033869;28;1902;-84
2021/12/23 01:44:04;;;;;;;;;;;;;;;;;;5041670;28;1689;-84
2021/12/23 01:46:29;;;;;;;;;;;;;;;;;;5014686;28;1446;-84
2021/12/23 01:48:54;;;;;;;;;;;;;;;;;;5014582;28;1319;-85
2021/12/23 01:51:19;;;;;;;;;;;;;;;;;;5017575;28;1250;-84
2021/12/23 01:53:44;;;;;;;;;;;;;;;;;;5017349;28;1193;-85
2021/12/23 01:56:09;;;;;;;;;;;;;;;;;;5026792;28;1761;-83
2021/12/23 01:58:34;;;;;;;;;;;;;;;;;;5037196;28;1646;-84
2021/12/23 02:00:59;;;;;;;;;;;;;;;;;;5036334;28;1906;-84
2021/12/23 02:03:25;;;;;;;;;;;;;;;;;;5036844;28;1471;-83
2021/12/23 02:05:50;;;;;;;;;;;;;;;;;;5037578;28;1666;-85
2021/12/23 02:08:15;;;;;;;;;;;;;;;;;;5038137;28;1614;-83
2021/12/23 02:10:41;;;;;;;;;;;;;;;;;;5038133;28;1676;-83
2021/12/23 02:13:07;;;;;;;;;;;;;;;;;;5036805;28;1357;-84
2021/12/23 02:15:32;;;;;;;;;;;;;;;;;;5036825;28;1498;-83
2021/12/23 02:17:57;;;;;;;;;;;;;;;;;;5036845;28;1626;-83
2021/12/23 02:20:22;;;;;;;;;;;;;;;;;;5036550;28;1548;-84
2021/12/23 02:22:47;;;;;;;;;;;;;;;;;;5037284;28;1886;-85
2021/12/23 02:25:12;;;;;;;;;;;;;;;;;;5038901;28;1070;-84
2021/12/23 02:27:37;;;;;;;;;;;;;;;;;;5036878;28;1204;-84
2021/12/23 02:30:02;;;;;;;;;;;;;;;;;;5036988;28;1186;-85
2021/12/23 02:32:27;;;;;;;;;;;;;;;;;;5038648;28;1051;-84
2021/12/23 02:34:52;;;;;;;;;;;;;;;;;;5036940;28;1435;-84
2021/12/23 02:37:17;;;;;;;;;;;;;;;;;;5036702;28;1192;-84
2021/12/23 02:39:42;;;;;;;;;;;;;;;;;;5036752;28;1773;-85
2021/12/23 02:42:07;;;;;;;;;;;;;;;;;;5038604;28;1890;-84
2021/12/23 02:44:32;;;;;;;;;;;;;;;;;;5038580;28;1174;-84
2021/12/23 02:46:57;;;;;;;;;;;;;;;;;;5037405;28;1662;-85
2021/12/23 02:49:23;;;;;;;;;;;;;;;;;;5037356;28;1220;-85
2021/12/23 02:51:48;;;;;;;;;;;;;;;;;;5037471;28;1323;-85
2021/12/23 02:54:13;;;;;;;;;;;;;;;;;;5038373;28;1746;-85
2021/12/23 02:56:38;;;;;;;;;;;;;;;;;;5037207;28;1171;-84
2021/12/23 02:59:03;;;;;;;;;;;;;;;;;;5037480;28;1176;-85
2021/12/23 03:01:28;;;;;;;;;;;;;;;;;;5037686;28;1941;-85
2021/12/23 03:03:53;;;;;;;;;;;;;;;;;;5038894;28;1284;-85
2021/12/23 03:06:19;;;;;;;;;;;;;;;;;;5039469;28;1292;-84
2021/12/23 03:08:45;;;;;;;;;;;;;;;;;;5036777;28;1334;-85
2021/12/23 03:11:10;;;;;;;;;;;;;;;;;;5035850;28;1216;-84
2021/12/23 03:13:35;;;;;;;;;;;;;;;;;;5035696;28;1244;-85
2021/12/23 03:16:00;;;;;;;;;;;;;;;;;;5035964;28;1128;-84
2021/12/23 03:18:25;;;;;;;;;;;;;;;;;;5036072;28;1270;-84
2021/12/23 03:20:50;;;;;;;;;;;;;;;;;;5037488;28;1882;-85
2021/12/23 03:23:15;;;;;;;;;;;;;;;;;;5035769;28;1208;-85
2021/12/23 03:25:40;;;;;;;;;;;;;;;;;;5036174;28;1286;-85
2021/12/23 03:28:05;;;;;;;;;;;;;;;;;;5036273;28;1773;-84
2021/12/23 03:30:30;;;;;;;;;;;;;;;;;;5035684;28;1653;-84
2021/12/23 03:32:55;;;;;;;;;;;;;;;;;;5036583;28;1202;-84
2021/12/23 03:35:20;;;;;;;;;;;;;;;;;;5037643;28;1054;-84
2021/12/23 03:37:45;;;;;;;;;;;;;;;;;;5037117;28;1268;-85
2021/12/23 03:40:10;;;;;;;;;;;;;;;;;;5036570;28;1250;-85
2021/12/23 03:42:35;;;;;;;;;;;;;;;;;;5035751;28;1886;-84
2021/12/23 03:45:00;;;;;;;;;;;;;;;;;;5034289;28;1505;-84
2021/12/23 03:47:26;;;;;;;;;;;;;;;;;;5035500;28;1197;-84
2021/12/23 03:49:51;;;;;;;;;;;;;;;;;;5035379;28;1239;-85
2021/12/23 03:52:16;;;;;;;;;;;;;;;;;;5035555;28;1282;-84
2021/12/23 03:54:41;;;;;;;;;;;;;;;;;;5059666;22;1761;-91
2021/12/23 03:57:06;;;;;;;;;;;;;;;;;;5032986;28;1322;-89
2021/12/23 03:59:31;;;;;;;;;;;;;;;;;;5034266;28;1698;-89
2021/12/23 04:01:56;;;;;;;;;;;;;;;;;;5033795;28;1974;-89
2021/12/23 04:04:21;;;;;;;;;;;;;;;;;;5032910;28;1514;-89
2021/12/23 04:06:46;;;;;;;;;;;;;;;;;;5032957;28;1275;-88
2021/12/23 04:09:11;;;;;;;;;;;;;;;;;;5032667;28;1276;-90
2021/12/23 04:11:36;;;;;;;;;;;;;;;;;;5032941;28;1733;-89
2021/12/23 04:14:01;;;;;;;;;;;;;;;;;;5032870;28;1297;-89
2021/12/23 04:16:26;;;;;;;;;;;;;;;;;;5034375;28;1295;-88
2021/12/23 04:18:52;;;;;;;;;;;;;;;;;;5034757;28;1263;-89
2021/12/23 04:21:17;;;;;;;;;;;;;;;;;;5034749;28;1945;-89
2021/12/23 04:23:42;;;;;;;;;;;;;;;;;;5036588;28;1645;-89
2021/12/23 04:26:09;;;;;;;;;;;;;;;;;;5036082;28;1646;-90
2021/12/23 04:28:38;;;;;;;;;;;;;;;;;;5034564;28;1231;-88
2021/12/23 04:31:05;;;;;;;;;;;;;;;;;;5034000;28;1487;-89
2021/12/23 04:33:30;;;;;;;;;;;;;;;;;;5034065;28;1603;-90
2021/12/23 04:35:55;;;;;;;;;;;;;;;;;;5033853;28;1200;-89
2021/12/23 04:38:20;;;;;;;;;;;;;;;;;;5034553;28;1186;-88
2021/12/23 04:40:45;;;;;;;;;;;;;;;;;;5034281;28;1255;-89
2021/12/23 04:43:10;;;;;;;;;;;;;;;;;;5034888;28;1947;-88
2021/12/23 04:45:35;;;;;;;;;;;;;;;;;;5035137;28;1358;-88
2021/12/23 04:48:00;;;;;;;;;;;;;;;;;;5034999;28;1349;-90
2021/12/23 04:50:25;;;;;;;;;;;;;;;;;;5035086;28;1303;-89
2021/12/23 04:52:55;;;;;;;;;;;;;;;;;;5034382;28;1326;-90
2021/12/23 04:55:20;;;;;;;;;;;;;;;;;;5034902;28;1354;-88
2021/12/23 04:57:45;;;;;;;;;;;;;;;;;;5035934;28;1265;-89
2021/12/23 05:00:10;;;;;;;;;;;;;;;;;;5034809;28;1172;-90
2021/12/23 05:02:35;;;;;;;;;;;;;;;;;;5034814;28;1902;-89
2021/12/23 05:05:00;;;;;;;;;;;;;;;;;;5034911;28;1294;-88
2021/12/23 05:07:25;;;;;;;;;;;;;;;;;;5035409;28;1235;-89
2021/12/23 05:09:50;;;;;;;;;;;;;;;;;;5035449;28;1443;-89
2021/12/23 05:12:15;;;;;;;;;;;;;;;;;;5035245;28;1145;-88
2021/12/23 05:14:40;;;;;;;;;;;;;;;;;;5035567;28;1193;-89
2021/12/23 05:17:06;;;;;;;;;;;;;;;;;;5035878;28;1185;-88
2021/12/23 05:19:31;;;;;;;;;;;;;;;;;;5034659;28;1307;-89
2021/12/23 05:21:56;;;;;;;;;;;;;;;;;;5034500;28;1926;-90
2021/12/23 05:24:21;;;;;;;;;;;;;;;;;;5036020;28;1197;-90
2021/12/23 05:26:46;;;;;;;;;;;;;;;;;;5039850;28;1541;-90
2021/12/23 05:29:11;;;;;;;;;;;;;;;;;;5039496;28;1291;-89
2021/12/23 05:31:36;;;;;;;;;;;;;;;;;;5039789;28;1239;-90
2021/12/23 05:34:01;;;;;;;;;;;;;;;;;;5038966;28;1272;-90
2021/12/23 05:36:27;;;;;;;;;;;;;;;;;;5039030;28;1717;-90
2021/12/23 05:38:52;;;;;;;;;;;;;;;;;;5038248;28;1346;-89
2021/12/23 05:41:17;;;;;;;;;;;;;;;;;;5038091;28;1913;-90
2021/12/23 05:43:42;;;;;;;;;;;;;;;;;;5038138;28;1341;-88
2021/12/23 05:46:07;;;;;;;;;;;;;;;;;;5038494;28;1720;-89
2021/12/23 05:48:32;;;;;;;;;;;;;;;;;;5040229;28;1247;-89
2021/12/23 05:50:58;;;;;;;;;;;;;;;;;;5039918;28;1249;-89
2021/12/23 05:53:23;;;;;;;;;;;;;;;;;;5038946;28;1444;-89
2021/12/23 05:55:48;;;;;;;;;;;;;;;;;;5039594;28;1284;-90
2021/12/23 05:58:16;;;;;;;;;;;;;;;;;;5040020;28;1244;-89
2021/12/23 06:00:41;;;;;;;;;;;;;;;;;;5040121;28;801;-90
2021/12/23 06:03:07;;;;;;;;;;;;;;;;;;5041037;28;1906;-89
2021/12/23 06:05:32;;;;;;;;;;;;;;;;;;5039482;28;1738;-89
2021/12/23 06:07:57;;;;;;;;;;;;;;;;;;5039242;28;1516;-88
2021/12/23 06:10:22;;;;;;;;;;;;;;;;;;5040985;28;1282;-89
2021/12/23 06:12:47;;;;;;;;;;;;;;;;;;5043146;28;1248;-88
2021/12/23 06:15:12;;;;;;;;;;;;;;;;;;5044922;28;1563;-88
2021/12/23 06:17:37;;;;;;;;;;;;;;;;;;5046799;28;1314;-88
2021/12/23 06:20:02;;;;;;;;;;;;;;;;;;5038937;28;1737;-88
2021/12/23 06:22:27;;;;;;;;;;;;;;;;;;5037421;28;1953;-88
2021/12/23 06:24:52;;;;;;;;;;;;;;;;;;5037619;28;1741;-89
2021/12/23 06:27:17;;;;;;;;;;;;;;;;;;5038952;28;1671;-89
2021/12/23 06:29:43;;;;;;;;;;;;;;;;;;5044329;28;1675;-89
2021/12/23 06:32:08;;;;;;;;;;;;;;;;;;5045839;28;1630;-90
2021/12/23 06:34:33;;;;;;;;;;;;;;;;;;5039478;28;1753;-89
2021/12/23 06:36:58;;;;;;;;;;;;;;;;;;5028008;28;1204;-88
2021/12/23 06:39:23;;;;;;;;;;;;;;;;;;5033239;28;1536;-90
2021/12/23 06:41:48;;;;;;;;;;;;;;;;;;5034218;28;1894;-87
2021/12/23 06:44:13;;;;;;;;;;;;;;;;;;5055806;28;1720;-89
2021/12/23 06:46:38;;;;;;;;;;;;;;;;;;5036580;28;1326;-89
2021/12/23 06:49:03;;;;;;;;;;;;;;;;;;5035718;28;1231;-89
2021/12/23 06:51:28;;;;;;;;;;;;;;;;;;5035408;28;1271;-88
2021/12/23 06:53:54;;;;;;;;;;;;;;;;;;5035173;28;1319;-89
2021/12/23 06:56:19;;;;;;;;;;;;;;;;;;5040474;28;1717;-88
2021/12/23 06:58:48;;;;;;;;;;;;;;;;;;5035398;28;1839;-88
2021/12/23 07:01:17;;;;;;;;;;;;;;;;;;5034553;28;1958;-87
2021/12/23 07:06:26;;;;;;;;;;;;;;;;;;5037467;28;592;-90
2021/12/23 07:08:54;;;;;;;;;;;;;;;;;;5035995;28;1188;-89
2021/12/23 07:11:19;;;;;;;;;;;;;;;;;;5036661;28;1641;-87
2021/12/23 07:13:44;;;;;;;;;;;;;;;;;;5034896;28;1796;-89
2021/12/23 07:16:09;;;;;;;;;;;;;;;;;;5039036;28;1299;-87
2021/12/23 07:18:34;;;;;;;;;;;;;;;;;;5055104;28;1337;-88
2021/12/23 07:20:59;;;;;;;;;;;;;;;;;;5056417;28;1906;-88
2021/12/23 07:23:24;;;;;;;;;;;;;;;;;;5048785;28;1427;-88
2021/12/23 07:25:49;;;;;;;;;;;;;;;;;;5034945;28;1207;-86
2021/12/23 07:28:14;;;;;;;;;;;;;;;;;;5032850;28;1271;-89
2021/12/23 07:30:39;;;;;;;;;;;;;;;;;;5017728;28;1549;-87
2021/12/23 07:33:04;;;;;;;;;;;;;;;;;;5035231;28;1197;-88
2021/12/23 07:35:29;;;;;;;;;;;;;;;;;;5036053;28;1244;-89
2021/12/23 07:37:57;;;;;;;;;;;;;;;;;;5034313;28;1345;-89
2021/12/23 07:40:22;;;;;;;;;;;;;;;;;;5032910;28;1680;-89
2021/12/23 07:42:55;;;;;;;;;;;;;;;;;;5033786;28;1890;-87
2021/12/23 07:45:21;;;;;;;;;;;;;;;;;;5035680;28;1870;-88
2021/12/23 07:47:46;;;;;;;;;;;;;;;;;;5034026;28;1208;-89
2021/12/23 07:50:11;;;;;;;;;;;;;;;;;;5034247;28;1295;-87
2021/12/23 07:52:36;;;;;;;;;;;;;;;;;;5034455;28;1161;-88
2021/12/23 07:55:01;;;;;;;;;;;;;;;;;;5034130;28;1293;-89
2021/12/23 07:57:26;;;;;;;;;;;;;;;;;;5033598;28;1417;-88
2021/12/23 07:59:51;;;;;;;;;;;;;;;;;;5033571;28;1236;-88
2021/12/23 08:02:16;;;;;;;;;;;;;;;;;;5033698;28;1958;-87
2021/12/23 08:04:41;;;;;;;;;;;;;;;;;;5034101;28;1286;-86
2021/12/23 08:07:06;;;;;;;;;;;;;;;;;;5035519;28;1980;-88
2021/12/23 08:09:31;;;;;;;;;;;;;;;;;;5033623;28;1251;-86
2021/12/23 08:11:59;;;;;;;;;;;;;;;;;;5034202;28;1322;-88
2021/12/23 08:14:24;;;;;;;;;;;;;;;;;;5033824;28;1223;-87
2021/12/23 08:16:49;;;;;;;;;;;;;;;;;;5033332;28;1611;-88
2021/12/23 08:19:14;;;;;;;;;;;;;;;;;;5033151;28;1180;-87
2021/12/23 08:21:39;;;;;;;;;;;;;;;;;;5033920;28;1947;-88
2021/12/23 08:24:04;;;;;;;;;;;;;;;;;;5033276;28;1256;-87
2021/12/23 08:26:29;;;;;;;;;;;;;;;;;;5034286;28;1729;-87
2021/12/23 08:28:54;;;;;;;;;;;;;;;;;;5033185;28;1267;-87
2021/12/23 08:31:21;;;;;;;;;;;;;;;;;;5034045;28;1772;-88
2021/12/23 08:33:46;;;;;;;;;;;;;;;;;;5029764;28;1484;-86
2021/12/23 08:36:11;;;;;;;;;;;;;;;;;;5034853;28;1877;-88
2021/12/23 08:38:36;;;;;;;;;;;;;;;;;;5032885;28;1559;-87
2021/12/23 08:41:01;;;;;;;;;;;;;;;;;;5033320;28;1882;-90
2021/12/23 08:43:26;;;;;;;;;;;;;;;;;;5032450;28;1510;-87
2021/12/23 08:45:51;;;;;;;;;;;;;;;;;;5048337;28;1253;-88
2021/12/23 08:48:16;;;;;;;;;;;;;;;;;;5037033;28;1803;-90
2021/12/23 08:50:41;;;;;;;;;;;;;;;;;;5032365;28;1233;-89
2021/12/23 08:53:10;;;;;;;;;;;;;;;;;;5032489;28;1664;-89
2021/12/23 08:55:35;;;;;;;;;;;;;;;;;;5030081;28;1777;-87
2021/12/23 08:58:03;;;;;;;;;;;;;;;;;;5034480;28;1419;-87
2021/12/23 09:00:29;;;;;;;;;;;;;;;;;;5033306;28;1498;-86
2021/12/23 09:02:54;;;;;;;;;;;;;;;;;;5037936;28;1890;-87
2021/12/23 09:05:19;;;;;;;;;;;;;;;;;;5038592;28;1394;-88
2021/12/23 09:07:44;;;;;;;;;;;;;;;;;;5025508;28;1545;-88
2021/12/23 09:10:09;;;;;;;;;;;;;;;;;;5039406;28;1228;-87
2021/12/23 09:12:34;;;;;;;;;;;;;;;;;;5039682;28;1323;-88
2021/12/23 09:14:59;;;;;;;;;;;;;;;;;;5039260;28;1374;-88
2021/12/23 09:17:24;;;;;;;;;;;;;;;;;;5054466;28;1734;-90
2021/12/23 09:19:49;;;;;;;;;;;;;;;;;;5037700;28;1546;-89
2021/12/23 09:22:14;;;;;;;;;;;;;;;;;;5037072;28;1897;-89
2021/12/23 09:24:45;;;;;;;;;;;;;;;;;;5054508;28;1247;-85
2021/12/23 09:27:22;;;;;;;;;;;;;;;;;;5039951;28;825;-86
2021/12/23 09:34:56;;;;;;;;;;;;;;;;;;5018869;28;1358;-87
2021/12/23 09:37:21;;;;;;;;;;;;;;;;;;5018125;28;1246;-88
2021/12/23 09:39:52;;;;;;;;;;;;;;;;;;5021822;28;1387;-89
2021/12/23 09:42:17;;;;;;;;;;;;;;;;;;5039211;28;1957;-89
2021/12/23 09:44:42;;;;;;;;;;;;;;;;;;5038331;28;1410;-88
2021/12/23 09:47:08;;;;;;;;;;;;;;;;;;5036992;28;1240;-89
2021/12/23 09:49:33;;;;;;;;;;;;;;;;;;5036817;28;1394;-89
2021/12/23 09:51:58;;;;;;;;;;;;;;;;;;5037544;28;1290;-88
2021/12/23 09:54:23;;;;;;;;;;;;;;;;;;5036631;28;1476;-87
2021/12/23 09:56:48;;;;;;;;;;;;;;;;;;5037979;28;1248;-89
2021/12/23 09:59:13;;;;;;;;;;;;;;;;;;5027854;28;1538;-86
2021/12/23 10:01:38;;;;;;;;;;;;;;;;;;5019425;28;1949;-89
2021/12/23 10:04:03;;;;;;;;;;;;;;;;;;5019461;28;1446;-86
2021/12/23 10:06:28;;;;;;;;;;;;;;;;;;5018540;28;1245;-87
2021/12/23 10:08:53;;;;;;;;;;;;;;;;;;5022969;28;1221;-87
2021/12/23 10:30:54;;;;;;;;;;;;;;;;;;5038992;28;619;-86
2021/12/23 10:33:26;;;;;;;;;;;;;;;;;;5038772;28;1082;-87
2021/12/23 10:38:34;;;;;;;;;;;;;;;;;;5030790;28;1980;-86
2021/12/23 10:40:59;;;;;;;;;;;;;;;;;;5034723;28;1863;-86
2021/12/23 10:48:35;;;;;;;;;;;;;;;;;;5081161;22;1798;-86
2021/12/23 10:51:05;;;;;;;;;;;;;;;;;;5022028;28;1118;-86
2021/12/23 11:37:43;;;;;;;;;;;;;;;;;;5033865;28;1174;-85
2021/12/23 11:45:18;;;;;;;;;;;;;;;;;;5022854;28;1541;-88
2021/12/23 11:47:45;;;;;;;;;;;;;;;;;;5013995;28;1299;-88
2021/12/23 11:50:18;;;;;;;;;;;;;;;;;;5060366;23;1910;-86
2021/12/23 11:52:43;;;;;;;;;;;;;;;;;;5024360;28;1540;-86
2021/12/23 11:55:09;;;;;;;;;;;;;;;;;;5029768;28;1344;-87
2021/12/23 11:57:36;;;;;;;;;;;;;;;;;;5027331;28;1522;-85
2021/12/23 12:00:32;;;;;;;;;;;;;;;;;;5009240;28;1631;-87
2021/12/23 12:02:47;;;;;;;;;;;;;;;;;;5007059;28;1883;-86
2021/12/23 12:05:12;;;;;;;;;;;;;;;;;;5021163;28;1699;-87
2021/12/23 12:07:37;;;;;;;;;;;;;;;;;;5008678;28;1698;-85
2021/12/23 12:10:02;;;;;;;;;;;;;;;;;;5024394;28;1667;-85
2021/12/23 12:12:27;;;;;;;;;;;;;;;;;;5024653;28;1662;-85
2021/12/23 12:14:55;;;;;;;;;;;;;;;;;;5022415;28;1663;-86
2021/12/23 12:17:20;;;;;;;;;;;;;;;;;;5023155;28;1501;-87
2021/12/23 12:19:45;;;;;;;;;;;;;;;;;;5007275;28;1276;-86
2021/12/23 12:22:10;;;;;;;;;;;;;;;;;;5023860;28;1875;-86
2021/12/23 12:24:35;;;;;;;;;;;;;;;;;;5020932;28;1695;-86
2021/12/23 12:27:01;;;;;;;;;;;;;;;;;;5022741;28;1275;-87
2021/12/23 12:29:27;;;;;;;;;;;;;;;;;;5006745;28;1636;-86
2021/12/23 12:31:52;;;;;;;;;;;;;;;;;;5012959;28;1445;-87
2021/12/23 12:34:19;;;;;;;;;;;;;;;;;;5020921;28;1515;-86
2021/12/23 12:36:44;;;;;;;;;;;;;;;;;;5023365;28;1287;-87
2021/12/23 12:39:09;;;;;;;;;;;;;;;;;;5023248;28;1283;-86
2021/12/23 12:41:34;;;;;;;;;;;;;;;;;;5024758;28;1875;-86
2021/12/23 12:44:01;;;;;;;;;;;;;;;;;;5024815;28;1683;-85
2021/12/23 12:46:32;;;;;;;;;;;;;;;;;;5025486;28;1555;-86
2021/12/23 12:48:58;;;;;;;;;;;;;;;;;;5025831;28;1623;-85
2021/12/23 12:51:23;;;;;;;;;;;;;;;;;;5019546;28;1294;-86
2021/12/23 12:53:48;;;;;;;;;;;;;;;;;;5015916;28;1608;-86
2021/12/23 12:56:13;;;;;;;;;;;;;;;;;;5013963;28;1421;-86
2021/12/23 12:58:38;;;;;;;;;;;;;;;;;;5015717;28;1229;-86
2021/12/23 13:01:04;;;;;;;;;;;;;;;;;;5014449;28;1886;-86
2021/12/23 13:03:29;;;;;;;;;;;;;;;;;;5015244;28;1266;-86
2021/12/23 13:05:54;;;;;;;;;;;;;;;;;;5016359;28;1208;-86
2021/12/23 13:08:19;;;;;;;;;;;;;;;;;;5015953;28;1282;-86
2021/12/23 13:10:48;;;;;;;;;;;;;;;;;;5014188;28;1388;-86
2021/12/23 13:13:14;;;;;;;;;;;;;;;;;;5015757;28;1327;-88
2021/12/23 13:15:40;;;;;;;;;;;;;;;;;;5011896;28;1535;-89
2021/12/23 13:18:05;;;;;;;;;;;;;;;;;;5014770;28;1227;-87
2021/12/23 13:20:32;;;;;;;;;;;;;;;;;;5015287;28;1228;-86
2021/12/23 13:22:58;;;;;;;;;;;;;;;;;;5013528;28;1883;-86
2021/12/23 13:25:23;;;;;;;;;;;;;;;;;;4999079;28;825;-84
2021/12/23 13:27:49;;;;;;;;;;;;;;;;;;5014096;28;1570;-86
2021/12/23 13:30:14;;;;;;;;;;;;;;;;;;5014497;28;1307;-86
2021/12/23 13:32:39;;;;;;;;;;;;;;;;;;5016099;28;1570;-86
2021/12/23 13:35:04;;;;;;;;;;;;;;;;;;5001575;28;1425;-86
2021/12/23 13:37:29;;;;;;;;;;;;;;;;;;5015676;28;1350;-86
2021/12/23 13:39:54;;;;;;;;;;;;;;;;;;5013881;28;1196;-87
2021/12/23 13:42:19;;;;;;;;;;;;;;;;;;5014898;28;1902;-86
2021/12/23 13:44:46;;;;;;;;;;;;;;;;;;5013735;28;1636;-86
2021/12/23 13:47:11;;;;;;;;;;;;;;;;;;5017381;28;1329;-86
2021/12/23 13:49:36;;;;;;;;;;;;;;;;;;5002168;28;1197;-86
2021/12/23 13:52:02;;;;;;;;;;;;;;;;;;5018257;28;1254;-85
2021/12/23 13:54:27;;;;;;;;;;;;;;;;;;5004444;28;999;-86
2021/12/23 13:56:52;;;;;;;;;;;;;;;;;;5017437;28;1536;-86
2021/12/23 13:59:17;;;;;;;;;;;;;;;;;;5015440;28;1357;-85
2021/12/23 14:01:42;;;;;;;;;;;;;;;;;;5016700;28;1902;-85
2021/12/23 14:04:07;;;;;;;;;;;;;;;;;;5016200;28;1487;-85
2021/12/23 14:06:32;;;;;;;;;;;;;;;;;;5001017;28;1447;-85
2021/12/23 14:08:57;;;;;;;;;;;;;;;;;;5013803;28;1412;-85
2021/12/23 14:11:24;;;;;;;;;;;;;;;;;;5016177;28;1595;-85
2021/12/23 14:13:49;;;;;;;;;;;;;;;;;;5016355;28;1360;-85
2021/12/23 14:16:14;;;;;;;;;;;;;;;;;;5016895;28;1513;-87
2021/12/23 14:23:50;;;;;;;;;;;;;;;;;;5001944;28;1519;-87
2021/12/23 14:26:15;;;;;;;;;;;;;;;;;;5002024;28;1568;-85
2021/12/23 14:28:42;;;;;;;;;;;;;;;;;;5015294;28;1521;-83
2021/12/23 14:31:09;;;;;;;;;;;;;;;;;;5015643;28;1742;-86
2021/12/23 14:33:34;;;;;;;;;;;;;;;;;;5015480;28;1441;-86
2021/12/23 14:36:13;;;;;;;;;;;;;;;;;;5014639;28;1164;-86
2021/12/23 14:38:44;;;;;;;;;;;;;;;;;;5014355;28;1583;-86
2021/12/23 14:41:09;;;;;;;;;;;;;;;;;;5014514;28;1946;-87
2021/12/23 14:43:34;;;;;;;;;;;;;;;;;;4999804;28;1516;-87
2021/12/23 14:45:59;;;;;;;;;;;;;;;;;;5015630;28;1315;-86
2021/12/23 14:48:26;;;;;;;;;;;;;;;;;;5014525;28;1532;-86
2021/12/23 14:51:01;;;;;;;;;;;;;;;;;;4999767;28;1843;-85
2021/12/23 14:53:26;;;;;;;;;;;;;;;;;;5000693;28;893;-85
2021/12/23 14:55:51;;;;;;;;;;;;;;;;;;5014490;28;1357;-85
2021/12/23 14:58:16;;;;;;;;;;;;;;;;;;4998682;28;1205;-85
2021/12/23 15:00:42;;;;;;;;;;;;;;;;;;4999097;28;1476;-84
2021/12/23 15:03:07;;;;;;;;;;;;;;;;;;5015081;28;1871;-84
2021/12/23 15:05:32;;;;;;;;;;;;;;;;;;5013989;28;1300;-85
2021/12/23 15:07:58;;;;;;;;;;;;;;;;;;5014292;28;1266;-84
2021/12/23 15:10:23;;;;;;;;;;;;;;;;;;5013631;28;1548;-84
2021/12/23 15:12:49;;;;;;;;;;;;;;;;;;5015380;28;1157;-83
2021/12/23 15:15:14;;;;;;;;;;;;;;;;;;5015749;28;1355;-84
2021/12/23 15:17:39;;;;;;;;;;;;;;;;;;5000677;28;1698;-85
2021/12/23 15:20:04;;;;;;;;;;;;;;;;;;5015768;28;1512;-85
2021/12/23 15:22:36;;;;;;;;;;;;;;;;;;5016909;28;1898;-86
2021/12/23 15:25:02;;;;;;;;;;;;;;;;;;5016250;28;1295;-85
2021/12/23 15:27:27;;;;;;;;;;;;;;;;;;5000703;28;1865;-84
2021/12/23 15:29:52;;;;;;;;;;;;;;;;;;4997810;28;1665;-84
2021/12/23 15:32:18;;;;;;;;;;;;;;;;;;5013577;28;1223;-83
2021/12/23 15:34:49;;;;;;;;;;;;;;;;;;4997870;28;899;-83
2021/12/23 15:37:14;;;;;;;;;;;;;;;;;;5012345;28;1678;-84
2021/12/23 15:39:39;;;;;;;;;;;;;;;;;;5012288;28;1213;-83
2021/12/23 15:42:04;;;;;;;;;;;;;;;;;;5012198;28;1951;-85
2021/12/23 15:44:30;;;;;;;;;;;;;;;;;;4997000;28;1464;-85
2021/12/23 15:46:56;;;;;;;;;;;;;;;;;;5012020;28;1259;-85
2021/12/23 15:49:21;;;;;;;;;;;;;;;;;;5011978;28;1378;-84
2021/12/23 15:51:46;;;;;;;;;;;;;;;;;;5011642;28;1343;-84
2021/12/23 15:54:11;;;;;;;;;;;;;;;;;;4997385;28;876;-84
2021/12/23 15:56:37;;;;;;;;;;;;;;;;;;5012239;28;1642;-84
2021/12/23 15:59:02;;;;;;;;;;;;;;;;;;5011477;28;1241;-84
2021/12/23 16:01:28;;;;;;;;;;;;;;;;;;5012101;28;1991;-84
2021/12/23 16:03:55;;;;;;;;;;;;;;;;;;5012181;28;1343;-84
2021/12/23 16:09:03;;;;;;;;;;;;;;;;;;4996394;28;1806;-84
2021/12/23 16:11:29;;;;;;;;;;;;;;;;;;5011500;28;1671;-85
2021/12/23 16:13:54;;;;;;;;;;;;;;;;;;4997341;28;808;-85
2021/12/23 16:16:20;;;;;;;;;;;;;;;;;;5011778;28;1539;-84
2021/12/23 16:18:45;;;;;;;;;;;;;;;;;;5013830;28;1273;-84
2021/12/23 16:21:10;;;;;;;;;;;;;;;;;;5014810;28;1334;-84
2021/12/23 16:23:35;;;;;;;;;;;;;;;;;;5014542;28;1878;-84
2021/12/23 16:26:00;;;;;;;;;;;;;;;;;;5014704;28;1575;-84
2021/12/23 16:28:25;;;;;;;;;;;;;;;;;;5016002;28;1249;-85
2021/12/23 16:30:51;;;;;;;;;;;;;;;;;;5015123;28;1482;-85
2021/12/23 16:33:16;;;;;;;;;;;;;;;;;;5013674;28;1284;-86
2021/12/23 16:35:41;;;;;;;;;;;;;;;;;;5012772;28;1667;-86
2021/12/23 16:38:06;;;;;;;;;;;;;;;;;;5012987;28;1355;-86
2021/12/23 16:40:31;;;;;;;;;;;;;;;;;;4998112;28;1650;-84
2021/12/23 16:42:56;;;;;;;;;;;;;;;;;;5012686;28;1954;-85
2021/12/23 16:45:21;;;;;;;;;;;;;;;;;;4998047;28;810;-85
2021/12/23 16:47:46;;;;;;;;;;;;;;;;;;5013154;28;1209;-85
2021/12/23 16:50:12;;;;;;;;;;;;;;;;;;4998065;28;1177;-86
2021/12/23 16:52:37;;;;;;;;;;;;;;;;;;4998285;28;1077;-86
2021/12/23 16:55:11;;;;;;;;;;;;;;;;;;4997305;28;837;-86
2021/12/23 16:57:37;;;;;;;;;;;;;;;;;;4996966;28;1558;-85
2021/12/23 17:00:02;;;;;;;;;;;;;;;;;;5011143;28;1652;-85
2021/12/23 17:02:27;;;;;;;;;;;;;;;;;;5012141;28;1890;-85
2021/12/23 17:04:52;;;;;;;;;;;;;;;;;;5012769;28;1754;-86
2021/12/23 17:07:28;;;;;;;;;;;;;;;;;;5013033;28;1658;-88
2021/12/23 17:09:57;;;;;;;;;;;;;;;;;;5013692;28;1608;-88
2021/12/23 17:12:22;;;;;;;;;;;;;;;;;;5013538;28;1538;-87
2021/12/23 17:14:47;;;;;;;;;;;;;;;;;;5013441;28;1220;-86
2021/12/23 17:17:16;;;;;;;;;;;;;;;;;;5012445;28;1199;-85
2021/12/23 17:19:54;;;;;;;;;;;;;;;;;;5012354;28;1371;-87
2021/12/23 17:22:20;;;;;;;;;;;;;;;;;;5015930;28;1882;-86
2021/12/23 17:24:45;;;;;;;;;;;;;;;;;;5018937;28;1244;-84
2021/12/23 17:27:10;;;;;;;;;;;;;;;;;;5014550;28;1633;-84
2021/12/23 17:29:35;;;;;;;;;;;;;;;;;;5014601;28;1743;-85
2021/12/23 17:32:00;;;;;;;;;;;;;;;;;;5014873;28;1358;-85
2021/12/23 17:34:25;;;;;;;;;;;;;;;;;;5015273;28;1378;-87
2021/12/23 17:36:51;;;;;;;;;;;;;;;;;;5017429;28;1407;-87
2021/12/23 17:42:07;;;;;;;;;;;;;;;;;;4982859;28;1926;-86
2021/12/23 17:44:32;;;;;;;;;;;;;;;;;;4997033;28;1442;-85
2021/12/23 17:46:57;;;;;;;;;;;;;;;;;;5015262;28;1515;-86
2021/12/23 17:49:23;;;;;;;;;;;;;;;;;;5017868;28;1233;-87
2021/12/23 17:51:48;;;;;;;;;;;;;;;;;;5016551;28;1484;-86
2021/12/23 17:54:13;;;;;;;;;;;;;;;;;;5014992;28;1235;-86
2021/12/23 17:56:41;;;;;;;;;;;;;;;;;;5017435;28;1455;-86
2021/12/23 17:59:06;;;;;;;;;;;;;;;;;;5012938;28;1283;-85
2021/12/23 18:01:31;;;;;;;;;;;;;;;;;;5015472;28;1911;-86
2021/12/23 18:03:56;;;;;;;;;;;;;;;;;;5014823;28;1192;-85
2021/12/23 18:06:21;;;;;;;;;;;;;;;;;;5015192;28;1613;-86
2021/12/23 18:08:46;;;;;;;;;;;;;;;;;;5015298;28;1375;-85
2021/12/23 18:11:11;;;;;;;;;;;;;;;;;;5015428;28;1354;-86
2021/12/23 18:13:36;;;;;;;;;;;;;;;;;;4999747;28;1060;-85
2021/12/23 18:16:01;;;;;;;;;;;;;;;;;;5015270;28;1647;-86
2021/12/23 18:18:27;;;;;;;;;;;;;;;;;;5014877;28;1333;-85
2021/12/23 18:20:52;;;;;;;;;;;;;;;;;;4999783;28;1455;-87
2021/12/23 18:23:17;;;;;;;;;;;;;;;;;;5014205;28;1895;-85
2021/12/23 18:25:42;;;;;;;;;;;;;;;;;;5014858;28;1149;-86
2021/12/23 18:28:07;;;;;;;;;;;;;;;;;;5015202;28;1276;-85
2021/12/23 18:30:32;;;;;;;;;;;;;;;;;;5014594;28;1441;-85
2021/12/23 18:32:59;;;;;;;;;;;;;;;;;;5014934;28;1687;-85
2021/12/23 18:35:29;;;;;;;;;;;;;;;;;;5015301;28;1228;-86
2021/12/23 18:37:57;;;;;;;;;;;;;;;;;;5015028;28;1261;-87
2021/12/23 18:40:22;;;;;;;;;;;;;;;;;;5014532;28;1479;-86